createdAt,value
2017-02-17T00:00:02.581Z,6.5
2017-02-17T00:01:08.630Z,6.6
2017-02-17T00:02:14.625Z,6.6
2017-02-17T00:03:20.626Z,6.4
2017-02-17T00:04:26.664Z,6.5
2017-02-17T00:05:32.663Z,6.5
2017-02-17T00:06:38.659Z,6.5
2017-02-17T00:07:43.554Z,6.4
2017-02-17T00:08:49.567Z,6.5
2017-02-17T00:09:55.563Z,6.5
2017-02-17T00:11:01.561Z,6.5
2017-02-17T00:12:07.570Z,6.5
2017-02-17T00:13:13.566Z,6.5
2017-02-17T00:14:19.568Z,6.6
2017-02-17T00:15:25.564Z,6.6
2017-02-17T00:16:31.561Z,6.5
2017-02-17T00:17:37.562Z,6.5
2017-02-17T00:18:43.565Z,6.4
2017-02-17T00:19:49.565Z,6.4
2017-02-17T00:20:55.569Z,6.5
2017-02-17T00:22:01.559Z,6.5
2017-02-17T00:23:07.555Z,6.5
2017-02-17T00:24:13.554Z,6.5
2017-02-17T00:25:18.460Z,6.5
2017-02-17T00:26:24.496Z,6.6
2017-02-17T00:27:30.494Z,6.5
2017-02-17T00:28:36.577Z,6.4
2017-02-17T00:29:42.505Z,6.5
2017-02-17T00:30:48.504Z,6.4
2017-02-17T00:31:54.512Z,6.5
2017-02-17T00:33:00.502Z,6.5
2017-02-17T00:34:06.517Z,6.5
2017-02-17T00:35:12.511Z,6.4
2017-02-17T00:36:18.511Z,6.5
2017-02-17T00:37:24.502Z,6.5
2017-02-17T00:38:30.541Z,6.5
2017-02-17T00:39:36.565Z,6.6
2017-02-17T00:40:42.539Z,6.6
2017-02-17T00:41:48.555Z,6.6
2017-02-17T00:42:54.540Z,6.5
2017-02-17T00:44:00.537Z,6.5
2017-02-17T00:45:06.720Z,6.6
2017-02-17T00:46:12.722Z,6.6
2017-02-17T00:47:18.723Z,6.5
2017-02-17T00:48:24.711Z,6.5
2017-02-17T00:49:30.713Z,6.6
2017-02-17T00:50:37.006Z,6.5
2017-02-17T00:51:42.796Z,6.5
2017-02-17T00:52:48.800Z,6.6
2017-02-17T00:53:54.805Z,6.5
2017-02-17T00:55:00.809Z,6.5
2017-02-17T00:56:06.851Z,6.4
2017-02-17T00:57:12.844Z,6.4
2017-02-17T00:58:18.859Z,6.3
2017-02-17T00:59:24.867Z,6.4
2017-02-17T01:00:30.854Z,6.4
2017-02-17T01:01:35.741Z,6.4
2017-02-17T01:02:41.872Z,6.4
2017-02-17T01:03:47.207Z,6.3
2017-02-17T01:04:53.240Z,6.2
2017-02-17T01:05:59.239Z,6.3
2017-02-17T01:07:05.238Z,6.3
2017-02-17T01:08:11.245Z,6.3
2017-02-17T01:09:15.580Z,6.3
2017-02-17T01:10:21.589Z,6.3
2017-02-17T01:11:27.579Z,6.3
2017-02-17T01:12:33.585Z,6.4
2017-02-17T01:13:39.578Z,6.4
2017-02-17T01:14:45.625Z,6.3
2017-02-17T01:15:51.653Z,6.2
2017-02-17T01:16:57.729Z,6.2
2017-02-17T01:18:03.719Z,6.2
2017-02-17T01:19:09.716Z,6.3
2017-02-17T01:20:14.623Z,6.3
2017-02-17T01:21:20.629Z,6.3
2017-02-17T01:22:25.960Z,6.4
2017-02-17T01:23:31.967Z,6.3
2017-02-17T01:24:37.302Z,6.2
2017-02-17T01:25:43.298Z,6.2
2017-02-17T01:26:49.302Z,6.3
2017-02-17T01:27:55.309Z,6.3
2017-02-17T01:29:01.304Z,6.3
2017-02-17T01:30:07.302Z,6.2
2017-02-17T01:31:13.510Z,6.2
2017-02-17T01:32:19.504Z,6.3
2017-02-17T01:33:25.503Z,6.3
2017-02-17T01:34:31.505Z,6.3
2017-02-17T01:35:37.510Z,6.3
2017-02-17T01:36:43.492Z,6.2
2017-02-17T01:37:48.912Z,6.2
2017-02-17T01:38:54.908Z,6.2
2017-02-17T01:40:00.910Z,6.2
2017-02-17T01:41:06.914Z,6.1
2017-02-17T01:42:12.909Z,6.2
2017-02-17T01:43:18.907Z,6.3
2017-02-17T01:44:24.910Z,6.2
2017-02-17T01:45:31.051Z,6.2
2017-02-17T01:46:37.044Z,6.2
2017-02-17T01:47:43.037Z,6.2
2017-02-17T01:48:49.038Z,6.1
2017-02-17T01:49:55.047Z,6.1
2017-02-17T01:51:00.403Z,6.2
2017-02-17T01:52:06.400Z,6.2
2017-02-17T01:53:12.397Z,6.1
2017-02-17T01:54:18.398Z,6
2017-02-17T01:55:23.752Z,6
2017-02-17T01:56:29.097Z,6.1
2017-02-17T01:57:34.586Z,6.1
2017-02-17T01:58:40.581Z,6.2
2017-02-17T01:59:45.481Z,6.2
2017-02-17T02:00:51.484Z,6.2
2017-02-17T02:01:57.475Z,6.3
2017-02-17T02:03:03.470Z,6.2
2017-02-17T02:04:09.464Z,6.2
2017-02-17T02:05:15.453Z,6.2
2017-02-17T02:06:21.450Z,6.2
2017-02-17T02:07:27.444Z,6.2
2017-02-17T02:08:33.439Z,6.1
2017-02-17T02:09:39.446Z,6.1
2017-02-17T02:10:45.697Z,6.1
2017-02-17T02:11:51.598Z,6.1
2017-02-17T02:12:57.595Z,6.1
2017-02-17T02:14:03.600Z,6
2017-02-17T02:15:09.593Z,6.1
2017-02-17T02:16:15.590Z,6
2017-02-17T02:17:21.589Z,5.9
2017-02-17T02:18:26.927Z,6
2017-02-17T02:19:32.922Z,6.1
2017-02-17T02:20:38.923Z,6.1
2017-02-17T02:21:44.920Z,6.1
2017-02-17T02:22:50.917Z,6.2
2017-02-17T02:23:56.911Z,6
2017-02-17T02:25:02.912Z,6
2017-02-17T02:26:07.813Z,6
2017-02-17T02:27:13.803Z,5.9
2017-02-17T02:28:19.802Z,5.9
2017-02-17T02:29:25.808Z,6
2017-02-17T02:30:31.142Z,6
2017-02-17T02:31:37.140Z,6
2017-02-17T02:32:42.474Z,6
2017-02-17T02:33:48.475Z,6
2017-02-17T02:34:54.473Z,6.1
2017-02-17T02:36:00.463Z,5.9
2017-02-17T02:37:05.367Z,5.9
2017-02-17T02:38:11.359Z,5.9
2017-02-17T02:39:17.359Z,6
2017-02-17T02:40:23.352Z,5.9
2017-02-17T02:41:28.689Z,5.9
2017-02-17T02:42:34.685Z,6
2017-02-17T02:43:40.682Z,6
2017-02-17T02:44:46.019Z,6
2017-02-17T02:45:52.013Z,6
2017-02-17T02:46:58.006Z,5.9
2017-02-17T02:48:04.014Z,5.9
2017-02-17T02:49:09.347Z,5.9
2017-02-17T02:50:15.341Z,6
2017-02-17T02:51:21.341Z,5.9
2017-02-17T02:52:27.343Z,5.9
2017-02-17T02:53:33.331Z,5.9
2017-02-17T02:54:39.326Z,5.9
2017-02-17T02:55:45.315Z,5.9
2017-02-17T02:56:51.307Z,5.9
2017-02-17T02:57:57.305Z,6
2017-02-17T02:59:03.304Z,6
2017-02-17T03:00:09.303Z,5.8
2017-02-17T03:01:15.299Z,5.9
2017-02-17T03:02:20.637Z,5.8
2017-02-17T03:03:25.976Z,5.8
2017-02-17T03:04:31.975Z,5.9
2017-02-17T03:05:38.242Z,5.8
2017-02-17T03:06:43.578Z,5.8
2017-02-17T03:07:49.578Z,5.8
2017-02-17T03:08:55.576Z,5.7
2017-02-17T03:10:01.576Z,5.7
2017-02-17T03:11:06.906Z,5.8
2017-02-17T03:12:12.905Z,5.9
2017-02-17T03:13:18.901Z,5.9
2017-02-17T03:14:24.893Z,5.9
2017-02-17T03:15:30.888Z,5.8
2017-02-17T03:16:36.883Z,5.8
2017-02-17T03:17:42.881Z,5.8
2017-02-17T03:18:48.221Z,5.7
2017-02-17T03:19:54.218Z,5.8
2017-02-17T03:21:00.217Z,5.8
2017-02-17T03:22:06.222Z,5.7
2017-02-17T03:23:11.557Z,5.8
2017-02-17T03:24:17.558Z,5.8
2017-02-17T03:25:23.555Z,5.8
2017-02-17T03:26:29.548Z,5.8
2017-02-17T03:27:35.549Z,5.8
2017-02-17T03:28:41.549Z,5.8
2017-02-17T03:29:47.543Z,5.7
2017-02-17T03:30:53.535Z,5.7
2017-02-17T03:31:59.530Z,5.6
2017-02-17T03:33:05.529Z,5.7
2017-02-17T03:34:10.423Z,5.6
2017-02-17T03:35:16.423Z,5.7
2017-02-17T03:36:21.318Z,5.7
2017-02-17T03:37:27.317Z,5.5
2017-02-17T03:38:33.320Z,5.6
2017-02-17T03:39:39.328Z,5.7
2017-02-17T03:40:45.322Z,5.7
2017-02-17T03:41:51.323Z,5.6
2017-02-17T03:42:57.321Z,5.6
2017-02-17T03:44:03.322Z,5.7
2017-02-17T03:45:09.310Z,5.7
2017-02-17T03:46:15.309Z,5.7
2017-02-17T03:47:21.309Z,5.6
2017-02-17T03:48:27.302Z,5.5
2017-02-17T03:49:33.300Z,5.6
2017-02-17T03:50:39.296Z,5.5
2017-02-17T03:51:45.294Z,5.6
2017-02-17T03:52:51.290Z,5.6
2017-02-17T03:53:57.297Z,5.7
2017-02-17T03:55:03.297Z,5.7
2017-02-17T03:56:09.289Z,5.6
2017-02-17T03:57:15.288Z,5.5
2017-02-17T03:58:21.288Z,5.5
2017-02-17T03:59:27.281Z,5.5
2017-02-17T04:00:33.285Z,5.5
2017-02-17T04:01:39.288Z,5.4
2017-02-17T04:02:44.623Z,5.4
2017-02-17T04:03:50.618Z,5.6
2017-02-17T04:04:56.624Z,5.6
2017-02-17T04:06:02.617Z,5.6
2017-02-17T04:07:08.619Z,5.6
2017-02-17T04:08:14.610Z,5.5
2017-02-17T04:09:20.609Z,5.5
2017-02-17T04:10:26.604Z,5.5
2017-02-17T04:11:32.604Z,5.4
2017-02-17T04:12:38.605Z,5.4
2017-02-17T04:13:43.941Z,5.4
2017-02-17T04:14:49.937Z,5.3
2017-02-17T04:15:54.840Z,5.4
2017-02-17T04:17:00.178Z,5.4
2017-02-17T04:18:06.177Z,5.4
2017-02-17T04:19:12.170Z,5.5
2017-02-17T04:20:18.169Z,5.4
2017-02-17T04:21:24.172Z,5.5
2017-02-17T04:22:29.509Z,5.5
2017-02-17T04:23:35.509Z,5.4
2017-02-17T04:24:41.503Z,5.5
2017-02-17T04:25:47.498Z,5.5
2017-02-17T04:26:53.496Z,5.4
2017-02-17T04:27:59.492Z,5.3
2017-02-17T04:29:05.484Z,5.3
2017-02-17T04:30:11.532Z,5.4
2017-02-17T04:31:17.521Z,5.4
2017-02-17T04:32:23.515Z,5.2
2017-02-17T04:33:28.849Z,5.3
2017-02-17T04:34:34.845Z,5.3
2017-02-17T04:35:40.846Z,5.3
2017-02-17T04:36:46.844Z,5.4
2017-02-17T04:37:52.173Z,5.3
2017-02-17T04:38:58.170Z,5.4
2017-02-17T04:40:04.169Z,5.2
2017-02-17T04:41:10.168Z,5.1
2017-02-17T04:42:16.170Z,5.2
2017-02-17T04:43:22.166Z,5.3
2017-02-17T04:44:28.167Z,5.4
2017-02-17T04:45:34.162Z,5.4
2017-02-17T04:46:40.161Z,5.5
2017-02-17T04:47:46.162Z,5.5
2017-02-17T04:48:51.503Z,5.7
2017-02-17T04:49:57.502Z,5.6
2017-02-17T04:51:03.505Z,5.4
2017-02-17T04:52:09.498Z,5.3
2017-02-17T04:53:15.498Z,5.2
2017-02-17T04:54:21.488Z,5.2
2017-02-17T04:55:26.829Z,5.2
2017-02-17T04:56:32.828Z,5.2
2017-02-17T04:57:38.825Z,5.2
2017-02-17T04:58:44.827Z,5.3
2017-02-17T04:59:50.830Z,5.2
2017-02-17T05:00:56.832Z,5.3
2017-02-17T05:02:02.828Z,5.4
2017-02-17T05:03:08.835Z,5.5
2017-02-17T05:04:14.829Z,5.4
2017-02-17T05:05:20.823Z,5.3
2017-02-17T05:06:26.823Z,5.4
2017-02-17T05:07:32.825Z,5.3
2017-02-17T05:08:38.156Z,5.3
2017-02-17T05:09:44.154Z,5.3
2017-02-17T05:10:50.155Z,5.4
2017-02-17T05:11:55.490Z,5.4
2017-02-17T05:13:01.482Z,5.4
2017-02-17T05:14:07.479Z,5.4
2017-02-17T05:15:13.495Z,5.5
2017-02-17T05:16:18.387Z,5.5
2017-02-17T05:17:24.390Z,5.6
2017-02-17T05:18:29.291Z,5.6
2017-02-17T05:19:35.289Z,5.5
2017-02-17T05:20:41.283Z,5.4
2017-02-17T05:21:47.280Z,5.4
2017-02-17T05:22:53.277Z,5.5
2017-02-17T05:23:59.272Z,5.3
2017-02-17T05:25:05.267Z,5.4
2017-02-17T05:26:11.265Z,5.3
2017-02-17T05:27:17.262Z,5.3
2017-02-17T05:28:23.258Z,5.3
2017-02-17T05:29:29.255Z,5.4
2017-02-17T05:30:35.255Z,5.4
2017-02-17T05:31:41.256Z,5.4
2017-02-17T05:32:47.254Z,5.4
2017-02-17T05:33:53.245Z,5.4
2017-02-17T05:34:59.248Z,5.4
2017-02-17T05:36:05.244Z,5.4
2017-02-17T05:37:11.242Z,5.3
2017-02-17T05:38:16.572Z,5.2
2017-02-17T05:39:22.572Z,5.3
2017-02-17T05:40:28.572Z,5.3
2017-02-17T05:41:34.569Z,5.2
2017-02-17T05:42:40.565Z,5.3
2017-02-17T05:43:46.560Z,5.3
2017-02-17T05:44:52.569Z,5.3
2017-02-17T05:45:58.563Z,5.4
2017-02-17T05:47:04.559Z,5.4
2017-02-17T05:48:09.896Z,5.5
2017-02-17T05:49:15.897Z,5.4
2017-02-17T05:50:21.888Z,5.2
2017-02-17T05:51:27.888Z,5.3
2017-02-17T05:52:33.228Z,5.4
2017-02-17T05:53:39.230Z,5.3
2017-02-17T05:54:45.219Z,5.4
2017-02-17T05:55:51.223Z,5.3
2017-02-17T05:56:57.217Z,5.4
2017-02-17T05:58:02.550Z,5.4
2017-02-17T05:59:08.551Z,5.3
2017-02-17T06:00:14.553Z,5.4
2017-02-17T06:01:20.549Z,5.4
2017-02-17T06:02:26.544Z,5.4
2017-02-17T06:03:32.543Z,5.3
2017-02-17T06:04:38.544Z,5.3
2017-02-17T06:05:44.539Z,5.4
2017-02-17T06:06:49.207Z,5.4
2017-02-17T06:07:55.210Z,5.4
2017-02-17T06:09:01.205Z,5.5
2017-02-17T06:10:07.206Z,5.4
2017-02-17T06:11:13.209Z,5.4
2017-02-17T06:12:19.209Z,5.4
2017-02-17T06:13:25.206Z,5.5
2017-02-17T06:14:30.545Z,5.4
2017-02-17T06:15:36.538Z,5.5
2017-02-17T06:16:42.531Z,5.5
2017-02-17T06:17:48.532Z,5.5
2017-02-17T06:18:54.535Z,5.5
2017-02-17T06:20:00.536Z,5.5
2017-02-17T06:21:06.529Z,5.5
2017-02-17T06:22:12.519Z,5.4
2017-02-17T06:23:18.519Z,5.3
2017-02-17T06:24:24.521Z,5.4
2017-02-17T06:25:30.521Z,5.6
2017-02-17T06:26:36.522Z,5.5
2017-02-17T06:27:41.417Z,5.5
2017-02-17T06:28:47.419Z,5.5
2017-02-17T06:29:52.751Z,5.5
2017-02-17T06:30:58.749Z,5.4
2017-02-17T06:32:04.746Z,5.3
2017-02-17T06:33:10.742Z,5.3
2017-02-17T06:34:16.074Z,5.4
2017-02-17T06:35:22.066Z,5.3
2017-02-17T06:36:28.064Z,5.3
2017-02-17T06:37:34.062Z,5.4
2017-02-17T06:38:40.063Z,5.4
2017-02-17T06:39:46.063Z,5.4
2017-02-17T06:40:52.064Z,5.4
2017-02-17T06:41:58.062Z,5.3
2017-02-17T06:43:04.055Z,5.3
2017-02-17T06:44:10.045Z,5.3
2017-02-17T06:45:16.044Z,5.4
2017-02-17T06:46:22.037Z,5.5
2017-02-17T06:47:28.037Z,5.4
2017-02-17T06:48:34.031Z,5.4
2017-02-17T06:49:38.931Z,5.5
2017-02-17T06:50:44.932Z,5.3
2017-02-17T06:51:50.926Z,5.4
2017-02-17T06:52:56.918Z,5.5
2017-02-17T06:54:02.265Z,5.5
2017-02-17T06:55:08.258Z,5.6
2017-02-17T06:56:14.254Z,5.6
2017-02-17T06:57:20.252Z,5.5
2017-02-17T06:58:26.252Z,5.6
2017-02-17T06:59:31.149Z,5.6
2017-02-17T07:00:37.149Z,5.6
2017-02-17T07:01:43.152Z,5.5
2017-02-17T07:02:47.815Z,5.6
2017-02-17T07:03:53.813Z,5.6
2017-02-17T07:04:59.810Z,5.6
2017-02-17T07:06:05.807Z,5.4
2017-02-17T07:07:11.809Z,5.3
2017-02-17T07:08:17.824Z,5.4
2017-02-17T07:09:23.811Z,5.4
2017-02-17T07:10:29.807Z,5.5
2017-02-17T07:11:34.711Z,5.5
2017-02-17T07:12:40.716Z,5.4
2017-02-17T07:13:46.048Z,5.5
2017-02-17T07:14:52.048Z,5.5
2017-02-17T07:15:58.049Z,5.4
2017-02-17T07:17:03.386Z,5.5
2017-02-17T07:18:09.375Z,5.5
2017-02-17T07:19:15.373Z,5.4
2017-02-17T07:20:21.368Z,5.4
2017-02-17T07:21:26.274Z,5.5
2017-02-17T07:22:32.271Z,5.4
2017-02-17T07:23:38.272Z,5.4
2017-02-17T07:24:44.269Z,5.5
2017-02-17T07:25:50.259Z,5.6
2017-02-17T07:26:56.258Z,5.6
2017-02-17T07:28:01.598Z,5.6
2017-02-17T07:29:07.591Z,5.7
2017-02-17T07:30:13.585Z,5.7
2017-02-17T07:31:19.587Z,5.7
2017-02-17T07:32:25.586Z,5.6
2017-02-17T07:33:31.580Z,5.6
2017-02-17T07:34:37.576Z,5.5
2017-02-17T07:35:43.576Z,5.5
2017-02-17T07:36:49.568Z,5.5
2017-02-17T07:37:55.568Z,5.5
2017-02-17T07:39:00.909Z,5.6
2017-02-17T07:40:06.243Z,5.7
2017-02-17T07:41:12.246Z,5.7
2017-02-17T07:42:17.143Z,5.6
2017-02-17T07:43:23.140Z,5.5
2017-02-17T07:44:29.129Z,5.7
2017-02-17T07:45:35.131Z,5.6
2017-02-17T07:46:41.136Z,5.5
2017-02-17T07:47:47.133Z,5.5
2017-02-17T07:48:53.131Z,5.5
2017-02-17T07:49:59.126Z,5.6
2017-02-17T07:51:05.123Z,5.7
2017-02-17T07:52:10.457Z,5.7
2017-02-17T07:53:16.452Z,5.7
2017-02-17T07:54:22.446Z,5.7
2017-02-17T07:55:28.442Z,5.8
2017-02-17T07:56:34.441Z,5.7
2017-02-17T07:57:40.441Z,5.7
2017-02-17T07:58:46.442Z,5.6
2017-02-17T07:59:51.775Z,5.8
2017-02-17T08:00:57.773Z,5.8
2017-02-17T08:02:03.114Z,5.6
2017-02-17T08:03:08.014Z,5.7
2017-02-17T08:04:14.013Z,5.8
2017-02-17T08:05:20.009Z,5.9
2017-02-17T08:06:26.005Z,5.9
2017-02-17T08:07:32.009Z,5.8
2017-02-17T08:08:38.010Z,5.7
2017-02-17T08:09:44.006Z,5.7
2017-02-17T08:10:50.005Z,5.9
2017-02-17T08:11:56.021Z,5.9
2017-02-17T08:13:02.013Z,6
2017-02-17T08:14:07.344Z,6
2017-02-17T08:15:13.339Z,6.1
2017-02-17T08:16:18.697Z,6.1
2017-02-17T08:17:24.702Z,6
2017-02-17T08:18:30.718Z,6.1
2017-02-17T08:19:36.703Z,6.1
2017-02-17T08:20:42.732Z,6.1
2017-02-17T08:21:48.714Z,6
2017-02-17T08:22:54.730Z,5.9
2017-02-17T08:24:00.721Z,5.9
2017-02-17T08:25:06.717Z,6
2017-02-17T08:26:12.719Z,6
2017-02-17T08:27:18.813Z,6.1
2017-02-17T08:28:24.793Z,6.1
2017-02-17T08:29:30.810Z,6
2017-02-17T08:30:36.798Z,6.1
2017-02-17T08:31:42.135Z,6.2
2017-02-17T08:32:48.136Z,6.3
2017-02-17T08:33:53.042Z,6.1
2017-02-17T08:34:59.048Z,6
2017-02-17T08:36:05.047Z,6
2017-02-17T08:37:11.055Z,6
2017-02-17T08:38:17.056Z,6
2017-02-17T08:39:22.389Z,6
2017-02-17T08:40:28.384Z,6
2017-02-17T08:41:34.378Z,5.9
2017-02-17T08:42:40.389Z,5.9
2017-02-17T08:43:46.410Z,6
2017-02-17T08:44:51.775Z,6.1
2017-02-17T08:45:57.749Z,6.1
2017-02-17T08:47:03.751Z,6
2017-02-17T08:48:09.767Z,6
2017-02-17T08:49:15.764Z,6
2017-02-17T08:50:20.660Z,6.1
2017-02-17T08:51:26.661Z,6
2017-02-17T08:52:32.662Z,6
2017-02-17T08:53:38.000Z,6.1
2017-02-17T08:54:42.914Z,6.2
2017-02-17T08:55:48.900Z,6.1
2017-02-17T08:56:54.897Z,6.1
2017-02-17T08:58:00.237Z,6.2
2017-02-17T08:59:06.257Z,6.3
2017-02-17T09:00:12.243Z,6.3
2017-02-17T09:01:18.254Z,6.3
2017-02-17T09:02:24.241Z,6.2
2017-02-17T09:03:30.254Z,6.2
2017-02-17T09:04:36.241Z,6.2
2017-02-17T09:05:42.243Z,6.3
2017-02-17T09:06:47.612Z,6.2
2017-02-17T09:07:53.626Z,6.3
2017-02-17T09:08:59.645Z,6.3
2017-02-17T09:10:05.639Z,6.2
2017-02-17T09:11:11.668Z,6.3
2017-02-17T09:12:17.684Z,6.4
2017-02-17T09:13:23.662Z,6.3
2017-02-17T09:14:28.573Z,6.3
2017-02-17T09:15:34.572Z,6.4
2017-02-17T09:16:40.603Z,6.3
2017-02-17T09:17:47.795Z,6.3
2017-02-17T09:18:53.810Z,6.4
2017-02-17T09:19:59.800Z,6.6
2017-02-17T09:21:05.841Z,6.5
2017-02-17T09:22:11.820Z,6.6
2017-02-17T09:23:17.817Z,6.6
2017-02-17T09:24:22.713Z,6.6
2017-02-17T09:25:28.707Z,6.7
2017-02-17T09:26:34.706Z,6.7
2017-02-17T09:27:40.706Z,6.7
2017-02-17T09:28:46.705Z,6.7
2017-02-17T09:29:52.706Z,6.7
2017-02-17T09:30:58.712Z,6.7
2017-02-17T09:32:04.706Z,6.5
2017-02-17T09:33:11.343Z,6.5
2017-02-17T09:34:24.656Z,6.7
2017-02-17T09:35:29.983Z,6.8
2017-02-17T09:36:35.989Z,6.6
2017-02-17T09:37:42.114Z,6.7
2017-02-17T09:38:47.004Z,6.8
2017-02-17T09:39:52.347Z,6.7
2017-02-17T09:40:58.343Z,6.7
2017-02-17T09:42:03.684Z,6.8
2017-02-17T09:43:09.022Z,6.7
2017-02-17T09:44:15.039Z,6.7
2017-02-17T09:45:21.038Z,6.7
2017-02-17T09:46:27.045Z,6.7
2017-02-17T09:47:33.570Z,6.6
2017-02-17T09:48:39.578Z,6.7
2017-02-17T09:49:45.597Z,6.6
2017-02-17T09:50:51.796Z,6.7
2017-02-17T09:51:57.800Z,6.6
2017-02-17T09:53:03.818Z,6.7
2017-02-17T09:54:09.827Z,6.6
2017-02-17T09:55:14.096Z,6.5
2017-02-17T09:56:20.096Z,6.5
2017-02-17T09:57:26.105Z,6.5
2017-02-17T09:58:32.107Z,6.6
2017-02-17T09:59:38.133Z,6.6
2017-02-17T10:00:44.133Z,6.7
2017-02-17T10:01:50.144Z,6.7
2017-02-17T10:02:56.148Z,6.6
2017-02-17T10:04:02.155Z,6.5
2017-02-17T10:05:08.145Z,6.5
2017-02-17T10:06:14.147Z,6.4
2017-02-17T10:07:20.152Z,6.5
2017-02-17T10:08:26.148Z,6.5
2017-02-17T10:09:32.152Z,6.5
2017-02-17T10:10:38.155Z,6.5
2017-02-17T10:11:43.054Z,6.6
2017-02-17T10:12:49.085Z,6.7
2017-02-17T10:13:55.077Z,6.6
2017-02-17T10:15:00.409Z,6.6
2017-02-17T10:16:05.308Z,6.6
2017-02-17T10:17:11.310Z,6.7
2017-02-17T10:18:17.311Z,6.7
2017-02-17T10:19:22.661Z,6.5
2017-02-17T10:20:28.780Z,6.5
2017-02-17T10:21:34.691Z,6.5
2017-02-17T10:22:40.684Z,6.6
2017-02-17T10:23:46.690Z,6.6
2017-02-17T10:24:52.691Z,6.6
2017-02-17T10:25:58.699Z,6.7
2017-02-17T10:27:03.602Z,6.5
2017-02-17T10:28:09.602Z,6.4
2017-02-17T10:29:15.596Z,6.6
2017-02-17T10:30:21.590Z,6.6
2017-02-17T10:31:26.927Z,6.6
2017-02-17T10:32:32.950Z,6.7
2017-02-17T10:33:38.955Z,6.6
2017-02-17T10:34:43.849Z,6.6
2017-02-17T10:35:49.848Z,6.6
2017-02-17T10:36:55.852Z,6.7
2017-02-17T10:38:01.187Z,6.8
2017-02-17T10:39:07.199Z,6.7
2017-02-17T10:40:13.208Z,6.7
2017-02-17T10:41:19.213Z,6.7
2017-02-17T10:42:25.246Z,6.8
2017-02-17T10:43:31.248Z,6.7
2017-02-17T10:44:37.255Z,6.7
2017-02-17T10:45:43.272Z,6.7
2017-02-17T10:46:49.281Z,6.8
2017-02-17T10:47:55.302Z,6.8
2017-02-17T10:49:01.319Z,6.8
2017-02-17T10:50:07.988Z,6.8
2017-02-17T10:51:14.001Z,6.9
2017-02-17T10:52:19.995Z,6.8
2017-02-17T10:53:26.000Z,6.7
2017-02-17T10:54:32.009Z,6.7
2017-02-17T10:55:38.022Z,6.7
2017-02-17T10:56:44.028Z,6.8
2017-02-17T10:57:50.028Z,6.9
2017-02-17T10:58:55.351Z,6.8
2017-02-17T11:00:01.360Z,6.8
2017-02-17T11:01:07.565Z,6.8
2017-02-17T11:02:13.567Z,6.8
2017-02-17T11:03:19.839Z,6.9
2017-02-17T11:04:25.713Z,6.8
2017-02-17T11:05:31.719Z,6.9
2017-02-17T11:06:37.732Z,6.9
2017-02-17T11:07:41.975Z,6.9
2017-02-17T11:08:47.314Z,6.9
2017-02-17T11:09:53.310Z,6.9
2017-02-17T11:10:58.757Z,6.9
2017-02-17T11:12:04.713Z,7
2017-02-17T11:13:10.769Z,7
2017-02-17T11:14:16.769Z,7.2
2017-02-17T11:15:22.784Z,7.3
2017-02-17T11:16:28.761Z,7.4
2017-02-17T11:17:34.766Z,7.3
2017-02-17T11:18:40.780Z,7.2
2017-02-17T11:19:45.681Z,7.4
2017-02-17T11:20:51.762Z,7.4
2017-02-17T11:21:57.731Z,7.1
2017-02-17T11:23:03.723Z,7
2017-02-17T11:24:08.541Z,7
2017-02-17T11:25:12.783Z,7.2
2017-02-17T11:26:18.787Z,7.3
2017-02-17T11:27:24.787Z,7.3
2017-02-17T11:28:30.787Z,7.3
2017-02-17T11:29:36.792Z,7.2
2017-02-17T11:30:41.687Z,7.1
2017-02-17T11:31:47.033Z,7.1
2017-02-17T11:32:51.983Z,7.1
2017-02-17T11:33:57.975Z,7.2
2017-02-17T11:35:03.978Z,7.3
2017-02-17T11:36:09.972Z,7.4
2017-02-17T11:37:15.971Z,7.4
2017-02-17T11:38:21.971Z,7.4
2017-02-17T11:39:27.977Z,7.3
2017-02-17T11:40:33.987Z,7.2
2017-02-17T11:41:39.997Z,7.3
2017-02-17T11:42:45.976Z,7.3
2017-02-17T11:43:51.986Z,7.3
2017-02-17T11:44:57.977Z,7.3
2017-02-17T11:46:03.977Z,7.4
2017-02-17T11:47:09.985Z,7.3
2017-02-17T11:48:15.985Z,7.4
2017-02-17T11:49:21.988Z,7.5
2017-02-17T11:50:27.989Z,7.5
2017-02-17T11:51:32.893Z,7.6
2017-02-17T11:52:38.887Z,7.4
2017-02-17T11:53:44.221Z,7.5
2017-02-17T11:54:50.274Z,7.5
2017-02-17T11:55:55.591Z,7.5
2017-02-17T11:57:01.586Z,7.7
2017-02-17T11:58:07.585Z,7.5
2017-02-17T11:59:13.586Z,7.5
2017-02-17T12:00:19.589Z,7.4
2017-02-17T12:01:24.926Z,7.4
2017-02-17T12:02:30.926Z,7.3
2017-02-17T12:03:36.926Z,7.2
2017-02-17T12:04:42.921Z,7.3
2017-02-17T12:05:48.921Z,7.3
2017-02-17T12:06:54.919Z,7.3
2017-02-17T12:08:00.907Z,7.5
2017-02-17T12:09:06.909Z,7.5
2017-02-17T12:10:12.910Z,7.5
2017-02-17T12:11:18.247Z,7.5
2017-02-17T12:12:24.233Z,7.5
2017-02-17T12:13:30.401Z,7.6
2017-02-17T12:14:36.251Z,7.7
2017-02-17T12:15:42.254Z,7.6
2017-02-17T12:16:48.249Z,7.5
2017-02-17T12:17:54.254Z,7.5
2017-02-17T12:19:00.382Z,7.5
2017-02-17T12:20:06.255Z,7.5
2017-02-17T12:21:12.249Z,7.5
2017-02-17T12:22:17.593Z,7.5
2017-02-17T12:23:23.584Z,7.5
2017-02-17T12:24:29.575Z,7.5
2017-02-17T12:25:34.908Z,7.5
2017-02-17T12:26:39.149Z,7.6
2017-02-17T12:27:45.146Z,7.7
2017-02-17T12:28:51.139Z,7.7
2017-02-17T12:29:57.137Z,7.7
2017-02-17T12:31:02.040Z,7.7
2017-02-17T12:32:08.050Z,7.9
2017-02-17T12:33:14.233Z,7.8
2017-02-17T12:34:20.231Z,7.8
2017-02-17T12:35:26.227Z,7.8
2017-02-17T12:36:32.235Z,7.9
2017-02-17T12:37:38.235Z,7.8
2017-02-17T12:38:43.184Z,7.9
2017-02-17T12:39:49.157Z,7.7
2017-02-17T12:40:55.173Z,7.8
2017-02-17T12:42:01.259Z,7.7
2017-02-17T12:43:07.316Z,7.6
2017-02-17T12:44:13.304Z,7.8
2017-02-17T12:45:19.305Z,7.9
2017-02-17T12:46:24.215Z,7.7
2017-02-17T12:47:30.207Z,7.9
2017-02-17T12:48:36.208Z,8
2017-02-17T12:49:41.575Z,7.9
2017-02-17T12:50:47.548Z,7.8
2017-02-17T12:51:53.541Z,7.7
2017-02-17T12:52:59.547Z,8
2017-02-17T12:54:05.544Z,8
2017-02-17T12:55:11.545Z,8.1
2017-02-17T12:56:17.547Z,8.2
2017-02-17T12:57:23.560Z,8.1
2017-02-17T12:58:29.560Z,8.1
2017-02-17T12:59:35.553Z,8
2017-02-17T13:00:41.558Z,8
2017-02-17T13:01:46.239Z,8
2017-02-17T13:02:52.247Z,8
2017-02-17T13:03:58.250Z,8
2017-02-17T13:05:03.591Z,8.1
2017-02-17T13:06:09.594Z,8
2017-02-17T13:07:15.593Z,8
2017-02-17T13:08:21.593Z,8
2017-02-17T13:09:27.598Z,8.1
2017-02-17T13:10:33.598Z,8
2017-02-17T13:11:47.084Z,8
2017-02-17T13:12:51.989Z,8
2017-02-17T13:13:57.988Z,8
2017-02-17T13:15:03.984Z,8
2017-02-17T13:16:09.985Z,7.9
2017-02-17T13:17:15.993Z,7.8
2017-02-17T13:18:21.984Z,8
2017-02-17T13:19:27.993Z,8.1
2017-02-17T13:20:34.089Z,8
2017-02-17T13:21:39.029Z,8.1
2017-02-17T13:22:45.022Z,8
2017-02-17T13:23:50.352Z,8.2
2017-02-17T13:24:56.353Z,8
2017-02-17T13:26:02.347Z,8
2017-02-17T13:27:08.344Z,8.1
2017-02-17T13:28:14.341Z,8
2017-02-17T13:29:20.341Z,7.9
2017-02-17T13:30:26.340Z,8
2017-02-17T13:31:32.342Z,8
2017-02-17T13:32:37.696Z,7.9
2017-02-17T13:33:43.689Z,8.1
2017-02-17T13:34:49.685Z,8
2017-02-17T13:35:55.033Z,8
2017-02-17T13:37:01.253Z,8
2017-02-17T13:38:06.612Z,7.9
2017-02-17T13:39:11.973Z,8
2017-02-17T13:40:17.950Z,8.2
2017-02-17T13:41:24.405Z,8
2017-02-17T13:42:30.573Z,8
2017-02-17T13:43:36.665Z,8
2017-02-17T13:44:43.025Z,8
2017-02-17T13:45:49.142Z,8.1
2017-02-17T13:46:55.210Z,8.1
2017-02-17T13:48:01.339Z,8
2017-02-17T13:49:07.546Z,8
2017-02-17T13:50:13.636Z,8
2017-02-17T13:51:19.625Z,7.9
2017-02-17T13:52:25.629Z,7.9
2017-02-17T13:53:31.626Z,7.9
2017-02-17T13:54:37.703Z,7.8
2017-02-17T13:55:43.723Z,7.9
2017-02-17T13:56:49.758Z,7.8
2017-02-17T13:57:55.757Z,7.7
2017-02-17T13:59:01.771Z,7.8
2017-02-17T14:00:07.134Z,7.8
2017-02-17T14:01:13.134Z,7.8
2017-02-17T14:02:19.132Z,7.8
2017-02-17T14:03:24.462Z,7.8
2017-02-17T14:04:29.363Z,7.8
2017-02-17T14:05:35.359Z,7.8
2017-02-17T14:06:41.362Z,7.9
2017-02-17T14:07:47.384Z,8
2017-02-17T14:08:53.393Z,7.8
2017-02-17T14:09:59.414Z,7.9
2017-02-17T14:11:04.764Z,7.9
2017-02-17T14:12:10.772Z,7.9
2017-02-17T14:13:16.789Z,8
2017-02-17T14:14:22.104Z,8.1
2017-02-17T14:15:28.112Z,8
2017-02-17T14:16:34.116Z,7.9
2017-02-17T14:17:40.139Z,7.9
2017-02-17T14:18:45.450Z,7.9
2017-02-17T14:19:51.455Z,8
2017-02-17T14:20:57.458Z,8
2017-02-17T14:22:03.497Z,8.1
2017-02-17T14:23:09.512Z,8
2017-02-17T14:24:15.522Z,8
2017-02-17T14:25:21.549Z,7.9
2017-02-17T14:26:26.219Z,7.7
2017-02-17T14:27:32.235Z,7.9
2017-02-17T14:28:38.237Z,7.9
2017-02-17T14:29:44.246Z,7.8
2017-02-17T14:30:50.267Z,7.7
2017-02-17T14:31:56.283Z,7.7
2017-02-17T14:33:01.196Z,7.7
2017-02-17T14:34:07.187Z,7.7
2017-02-17T14:35:13.205Z,7.7
2017-02-17T14:36:19.216Z,7.7
2017-02-17T14:37:24.590Z,7.7
2017-02-17T14:38:29.470Z,7.8
2017-02-17T14:39:35.468Z,7.8
2017-02-17T14:40:40.368Z,7.9
2017-02-17T14:41:46.384Z,7.8
2017-02-17T14:42:52.372Z,7.8
2017-02-17T14:43:58.394Z,7.8
2017-02-17T14:45:04.372Z,7.9
2017-02-17T14:46:10.366Z,7.9
2017-02-17T14:47:16.375Z,7.9
2017-02-17T14:48:22.400Z,7.9
2017-02-17T14:49:28.520Z,7.9
2017-02-17T14:50:35.944Z,8
2017-02-17T14:51:42.060Z,8.1
2017-02-17T14:52:48.063Z,8.2
2017-02-17T14:53:54.212Z,8.1
2017-02-17T14:55:00.240Z,8
2017-02-17T14:56:07.801Z,8.1
2017-02-17T14:57:13.570Z,8.1
2017-02-17T14:58:19.580Z,8.1
2017-02-17T14:59:25.579Z,7.9
2017-02-17T15:00:31.573Z,7.9
2017-02-17T15:01:37.579Z,7.9
2017-02-17T15:02:43.573Z,8
2017-02-17T15:03:49.578Z,7.9
2017-02-17T15:04:55.600Z,7.9
2017-02-17T15:06:01.610Z,8
2017-02-17T15:07:07.598Z,8
2017-02-17T15:08:13.599Z,8
2017-02-17T15:09:19.622Z,7.9
2017-02-17T15:10:24.956Z,8
2017-02-17T15:11:30.947Z,7.8
2017-02-17T15:12:36.961Z,7.8
2017-02-17T15:13:42.967Z,7.8